sensor_id;sensor_type;location;lat;lon;timestamp;temperature;humidity
41722;DHT22;27407;24.142;-110.310;2023-05-07T00:00:18;34.50;47.30
41722;DHT22;27407;24.142;-110.310;2023-05-07T00:02:45;34.40;47.10
41722;DHT22;27407;24.142;-110.310;2023-05-07T00:05:12;34.00;47.00
41722;DHT22;27407;24.142;-110.310;2023-05-07T00:07:39;33.70;47.30
41722;DHT22;27407;24.142;-110.310;2023-05-07T00:10:07;33.40;47.70
41722;DHT22;27407;24.142;-110.310;2023-05-07T00:12:33;33.30;48.70
41722;DHT22;27407;24.142;-110.310;2023-05-07T00:15:02;33.10;47.20
41722;DHT22;27407;24.142;-110.310;2023-05-07T00:17:30;32.60;47.40
41722;DHT22;27407;24.142;-110.310;2023-05-07T00:19:56;32.60;48.00
41722;DHT22;27407;24.142;-110.310;2023-05-07T00:22:23;32.30;46.40
41722;DHT22;27407;24.142;-110.310;2023-05-07T00:24:50;32.40;46.50
41722;DHT22;27407;24.142;-110.310;2023-05-07T00:27:16;32.30;46.60
41722;DHT22;27407;24.142;-110.310;2023-05-07T00:29:43;32.20;46.70
41722;DHT22;27407;24.142;-110.310;2023-05-07T00:32:10;32.00;47.40
41722;DHT22;27407;24.142;-110.310;2023-05-07T00:34:36;31.90;47.90
41722;DHT22;27407;24.142;-110.310;2023-05-07T00:37:03;32.00;48.00
41722;DHT22;27407;24.142;-110.310;2023-05-07T00:39:30;31.80;48.30
41722;DHT22;27407;24.142;-110.310;2023-05-07T00:41:56;31.80;47.90
41722;DHT22;27407;24.142;-110.310;2023-05-07T00:44:23;31.70;47.60
41722;DHT22;27407;24.142;-110.310;2023-05-07T00:46:49;31.70;47.90
41722;DHT22;27407;24.142;-110.310;2023-05-07T00:49:16;31.80;48.30
41722;DHT22;27407;24.142;-110.310;2023-05-07T00:51:43;31.90;48.60
41722;DHT22;27407;24.142;-110.310;2023-05-07T00:54:10;32.30;48.70
41722;DHT22;27407;24.142;-110.310;2023-05-07T00:56:37;32.40;49.00
41722;DHT22;27407;24.142;-110.310;2023-05-07T00:59:06;32.00;49.40
41722;DHT22;27407;24.142;-110.310;2023-05-07T01:01:32;31.70;50.60
41722;DHT22;27407;24.142;-110.310;2023-05-07T01:03:59;31.80;50.80
41722;DHT22;27407;24.142;-110.310;2023-05-07T01:06:26;31.70;50.10
41722;DHT22;27407;24.142;-110.310;2023-05-07T01:08:54;31.30;50.20
41722;DHT22;27407;24.142;-110.310;2023-05-07T01:11:23;30.80;64.40
41722;DHT22;27407;24.142;-110.310;2023-05-07T01:13:51;30.40;69.60
41722;DHT22;27407;24.142;-110.310;2023-05-07T01:16:18;30.10;71.00
41722;DHT22;27407;24.142;-110.310;2023-05-07T01:18:46;30.10;71.00
41722;DHT22;27407;24.142;-110.310;2023-05-07T01:21:16;30.00;71.30
41722;DHT22;27407;24.142;-110.310;2023-05-07T01:23:44;29.50;72.00
41722;DHT22;27407;24.142;-110.310;2023-05-07T01:26:12;29.00;72.50
41722;DHT22;27407;24.142;-110.310;2023-05-07T01:28:38;28.60;73.30
41722;DHT22;27407;24.142;-110.310;2023-05-07T01:31:05;28.40;73.70
41722;DHT22;27407;24.142;-110.310;2023-05-07T01:33:34;28.40;73.30
41722;DHT22;27407;24.142;-110.310;2023-05-07T01:36:03;28.10;73.90
41722;DHT22;27407;24.142;-110.310;2023-05-07T01:38:32;28.20;73.40
41722;DHT22;27407;24.142;-110.310;2023-05-07T01:40:59;28.00;71.80
41722;DHT22;27407;24.142;-110.310;2023-05-07T01:43:33;28.00;71.40
41722;DHT22;27407;24.142;-110.310;2023-05-07T01:46:01;27.70;70.80
41722;DHT22;27407;24.142;-110.310;2023-05-07T01:48:29;27.50;71.60
41722;DHT22;27407;24.142;-110.310;2023-05-07T01:50:56;27.30;72.10
41722;DHT22;27407;24.142;-110.310;2023-05-07T01:53:22;27.10;72.20
41722;DHT22;27407;24.142;-110.310;2023-05-07T01:55:49;26.90;72.80
41722;DHT22;27407;24.142;-110.310;2023-05-07T01:58:16;26.80;73.20
41722;DHT22;27407;24.142;-110.310;2023-05-07T02:00:42;26.70;73.60
41722;DHT22;27407;24.142;-110.310;2023-05-07T02:03:09;26.60;73.70
41722;DHT22;27407;24.142;-110.310;2023-05-07T02:05:36;26.50;73.20
41722;DHT22;27407;24.142;-110.310;2023-05-07T02:08:02;26.40;72.40
41722;DHT22;27407;24.142;-110.310;2023-05-07T02:10:29;26.30;71.80
41722;DHT22;27407;24.142;-110.310;2023-05-07T02:12:56;26.20;71.40
41722;DHT22;27407;24.142;-110.310;2023-05-07T02:15:22;26.30;71.30
41722;DHT22;27407;24.142;-110.310;2023-05-07T02:18:04;26.20;71.40
41722;DHT22;27407;24.142;-110.310;2023-05-07T02:20:31;26.20;71.50
41722;DHT22;27407;24.142;-110.310;2023-05-07T02:22:57;26.10;71.10
41722;DHT22;27407;24.142;-110.310;2023-05-07T02:25:24;26.10;70.90
41722;DHT22;27407;24.142;-110.310;2023-05-07T02:27:51;26.00;70.60
41722;DHT22;27407;24.142;-110.310;2023-05-07T02:30:17;26.00;70.30
41722;DHT22;27407;24.142;-110.310;2023-05-07T02:32:44;25.80;70.00
41722;DHT22;27407;24.142;-110.310;2023-05-07T02:35:11;25.90;68.80
41722;DHT22;27407;24.142;-110.310;2023-05-07T02:37:37;25.70;69.40
41722;DHT22;27407;24.142;-110.310;2023-05-07T02:40:08;25.60;69.60
41722;DHT22;27407;24.142;-110.310;2023-05-07T02:42:35;25.60;69.80
41722;DHT22;27407;24.142;-110.310;2023-05-07T02:45:01;25.60;69.90
41722;DHT22;27407;24.142;-110.310;2023-05-07T02:47:28;25.60;69.90
41722;DHT22;27407;24.142;-110.310;2023-05-07T02:49:55;25.50;69.40
41722;DHT22;27407;24.142;-110.310;2023-05-07T02:52:22;25.40;69.70
41722;DHT22;27407;24.142;-110.310;2023-05-07T02:54:52;25.30;70.10
41722;DHT22;27407;24.142;-110.310;2023-05-07T02:57:18;25.40;71.00
41722;DHT22;27407;24.142;-110.310;2023-05-07T02:59:45;25.30;72.30
41722;DHT22;27407;24.142;-110.310;2023-05-07T03:02:12;25.20;73.30
41722;DHT22;27407;24.142;-110.310;2023-05-07T03:04:39;25.30;74.30
41722;DHT22;27407;24.142;-110.310;2023-05-07T03:07:06;25.20;74.80
41722;DHT22;27407;24.142;-110.310;2023-05-07T03:09:32;25.20;75.50
41722;DHT22;27407;24.142;-110.310;2023-05-07T03:11:59;25.20;76.00
41722;DHT22;27407;24.142;-110.310;2023-05-07T03:14:27;25.20;75.90
41722;DHT22;27407;24.142;-110.310;2023-05-07T03:16:54;25.20;75.50
41722;DHT22;27407;24.142;-110.310;2023-05-07T03:19:21;25.10;75.80
41722;DHT22;27407;24.142;-110.310;2023-05-07T03:21:47;25.00;76.70
41722;DHT22;27407;24.142;-110.310;2023-05-07T03:24:14;25.00;78.20
41722;DHT22;27407;24.142;-110.310;2023-05-07T03:26:40;25.00;81.50
41722;DHT22;27407;24.142;-110.310;2023-05-07T03:29:07;24.90;85.10
41722;DHT22;27407;24.142;-110.310;2023-05-07T03:31:34;24.80;86.50
41722;DHT22;27407;24.142;-110.310;2023-05-07T03:34:01;24.90;87.90
41722;DHT22;27407;24.142;-110.310;2023-05-07T03:36:27;24.80;88.90
41722;DHT22;27407;24.142;-110.310;2023-05-07T03:38:56;24.80;90.00
41722;DHT22;27407;24.142;-110.310;2023-05-07T03:41:23;24.70;90.70
41722;DHT22;27407;24.142;-110.310;2023-05-07T03:43:50;24.70;91.40
41722;DHT22;27407;24.142;-110.310;2023-05-07T03:46:16;24.60;91.60
41722;DHT22;27407;24.142;-110.310;2023-05-07T03:48:43;24.60;91.80
41722;DHT22;27407;24.142;-110.310;2023-05-07T03:51:10;24.60;91.90
41722;DHT22;27407;24.142;-110.310;2023-05-07T03:53:36;24.60;92.20
41722;DHT22;27407;24.142;-110.310;2023-05-07T03:56:03;24.60;91.90
41722;DHT22;27407;24.142;-110.310;2023-05-07T03:58:30;24.50;92.30
41722;DHT22;27407;24.142;-110.310;2023-05-07T04:00:56;24.50;93.20
41722;DHT22;27407;24.142;-110.310;2023-05-07T04:03:23;24.50;93.70
41722;DHT22;27407;24.142;-110.310;2023-05-07T04:05:59;24.50;94.10
41722;DHT22;27407;24.142;-110.310;2023-05-07T04:08:26;24.50;95.00
41722;DHT22;27407;24.142;-110.310;2023-05-07T04:10:56;24.50;95.40
41722;DHT22;27407;24.142;-110.310;2023-05-07T04:13:23;24.60;95.80
41722;DHT22;27407;24.142;-110.310;2023-05-07T04:15:50;24.60;96.20
41722;DHT22;27407;24.142;-110.310;2023-05-07T04:18:17;24.50;96.60
41722;DHT22;27407;24.142;-110.310;2023-05-07T04:20:44;24.50;97.10
41722;DHT22;27407;24.142;-110.310;2023-05-07T04:23:11;24.40;97.40
41722;DHT22;27407;24.142;-110.310;2023-05-07T04:25:37;24.40;97.60
41722;DHT22;27407;24.142;-110.310;2023-05-07T04:28:04;24.30;97.30
41722;DHT22;27407;24.142;-110.310;2023-05-07T04:30:32;24.20;97.90
41722;DHT22;27407;24.142;-110.310;2023-05-07T04:32:58;24.10;98.70
41722;DHT22;27407;24.142;-110.310;2023-05-07T04:35:25;24.20;98.90
41722;DHT22;27407;24.142;-110.310;2023-05-07T04:37:52;24.20;98.90
41722;DHT22;27407;24.142;-110.310;2023-05-07T04:40:25;24.20;99.30
41722;DHT22;27407;24.142;-110.310;2023-05-07T04:42:59;24.30;99.50
41722;DHT22;27407;24.142;-110.310;2023-05-07T04:45:26;24.30;99.90
41722;DHT22;27407;24.142;-110.310;2023-05-07T04:47:53;24.30;99.90
41722;DHT22;27407;24.142;-110.310;2023-05-07T04:50:19;24.30;99.90
41722;DHT22;27407;24.142;-110.310;2023-05-07T04:52:49;24.30;99.90
41722;DHT22;27407;24.142;-110.310;2023-05-07T04:55:16;24.20;99.90
41722;DHT22;27407;24.142;-110.310;2023-05-07T04:57:43;24.20;99.90
41722;DHT22;27407;24.142;-110.310;2023-05-07T05:00:09;24.10;99.90
41722;DHT22;27407;24.142;-110.310;2023-05-07T05:02:36;24.10;99.90
41722;DHT22;27407;24.142;-110.310;2023-05-07T05:05:03;24.10;99.90
41722;DHT22;27407;24.142;-110.310;2023-05-07T05:07:30;24.00;99.90
41722;DHT22;27407;24.142;-110.310;2023-05-07T05:09:56;24.00;99.90
41722;DHT22;27407;24.142;-110.310;2023-05-07T05:12:23;23.90;99.90
41722;DHT22;27407;24.142;-110.310;2023-05-07T05:14:50;23.80;99.90
41722;DHT22;27407;24.142;-110.310;2023-05-07T05:17:17;23.80;99.90
41722;DHT22;27407;24.142;-110.310;2023-05-07T05:19:43;23.90;99.90
41722;DHT22;27407;24.142;-110.310;2023-05-07T05:22:10;23.90;99.90
41722;DHT22;27407;24.142;-110.310;2023-05-07T05:24:37;23.70;99.90
41722;DHT22;27407;24.142;-110.310;2023-05-07T05:27:03;23.40;99.90
41722;DHT22;27407;24.142;-110.310;2023-05-07T05:29:30;23.30;99.90
41722;DHT22;27407;24.142;-110.310;2023-05-07T05:32:00;23.30;99.90
41722;DHT22;27407;24.142;-110.310;2023-05-07T05:34:26;23.40;99.90
41722;DHT22;27407;24.142;-110.310;2023-05-07T05:36:53;23.40;99.90
41722;DHT22;27407;24.142;-110.310;2023-05-07T05:39:20;23.40;99.90
41722;DHT22;27407;24.142;-110.310;2023-05-07T05:41:47;23.40;99.90
41722;DHT22;27407;24.142;-110.310;2023-05-07T05:44:14;23.30;99.90
41722;DHT22;27407;24.142;-110.310;2023-05-07T05:46:41;23.20;99.90
41722;DHT22;27407;24.142;-110.310;2023-05-07T05:49:07;23.20;99.90
41722;DHT22;27407;24.142;-110.310;2023-05-07T05:51:34;23.20;99.90
41722;DHT22;27407;24.142;-110.310;2023-05-07T05:54:01;23.20;99.90
41722;DHT22;27407;24.142;-110.310;2023-05-07T05:56:27;23.20;99.90
41722;DHT22;27407;24.142;-110.310;2023-05-07T05:58:54;23.10;99.90
41722;DHT22;27407;24.142;-110.310;2023-05-07T06:01:21;23.10;99.90
41722;DHT22;27407;24.142;-110.310;2023-05-07T06:03:48;23.20;99.90
41722;DHT22;27407;24.142;-110.310;2023-05-07T06:06:14;23.20;99.90
41722;DHT22;27407;24.142;-110.310;2023-05-07T06:08:41;23.20;99.90
41722;DHT22;27407;24.142;-110.310;2023-05-07T06:11:08;23.30;99.90
41722;DHT22;27407;24.142;-110.310;2023-05-07T06:13:34;23.20;99.90
41722;DHT22;27407;24.142;-110.310;2023-05-07T06:16:01;23.20;99.90
41722;DHT22;27407;24.142;-110.310;2023-05-07T06:18:28;23.20;99.90
41722;DHT22;27407;24.142;-110.310;2023-05-07T06:20:55;23.10;99.90
41722;DHT22;27407;24.142;-110.310;2023-05-07T06:23:21;23.20;99.90
41722;DHT22;27407;24.142;-110.310;2023-05-07T06:25:51;23.20;99.90
41722;DHT22;27407;24.142;-110.310;2023-05-07T06:28:18;23.20;99.90
41722;DHT22;27407;24.142;-110.310;2023-05-07T06:30:45;22.90;99.90
41722;DHT22;27407;24.142;-110.310;2023-05-07T06:33:11;22.80;99.90
41722;DHT22;27407;24.142;-110.310;2023-05-07T06:35:38;22.90;99.90
41722;DHT22;27407;24.142;-110.310;2023-05-07T06:38:04;22.80;99.90
41722;DHT22;27407;24.142;-110.310;2023-05-07T06:40:31;22.80;99.90
41722;DHT22;27407;24.142;-110.310;2023-05-07T06:42:58;22.80;99.90
41722;DHT22;27407;24.142;-110.310;2023-05-07T06:45:24;23.00;99.90
41722;DHT22;27407;24.142;-110.310;2023-05-07T06:47:51;23.10;99.90
41722;DHT22;27407;24.142;-110.310;2023-05-07T06:50:18;23.10;99.90
41722;DHT22;27407;24.142;-110.310;2023-05-07T06:52:44;23.10;99.90
41722;DHT22;27407;24.142;-110.310;2023-05-07T06:55:11;23.10;99.90
41722;DHT22;27407;24.142;-110.310;2023-05-07T06:57:38;23.10;99.90
41722;DHT22;27407;24.142;-110.310;2023-05-07T07:00:05;23.10;99.90
41722;DHT22;27407;24.142;-110.310;2023-05-07T07:02:35;23.00;99.90
41722;DHT22;27407;24.142;-110.310;2023-05-07T07:05:01;22.90;99.90
41722;DHT22;27407;24.142;-110.310;2023-05-07T07:07:28;22.70;99.90
41722;DHT22;27407;24.142;-110.310;2023-05-07T07:09:54;22.60;99.90
41722;DHT22;27407;24.142;-110.310;2023-05-07T07:12:21;22.40;99.90
41722;DHT22;27407;24.142;-110.310;2023-05-07T07:14:50;22.30;99.90
41722;DHT22;27407;24.142;-110.310;2023-05-07T07:17:17;22.30;99.90
41722;DHT22;27407;24.142;-110.310;2023-05-07T07:19:43;22.40;99.90
41722;DHT22;27407;24.142;-110.310;2023-05-07T07:22:10;22.40;99.90
41722;DHT22;27407;24.142;-110.310;2023-05-07T07:24:37;22.30;99.90
41722;DHT22;27407;24.142;-110.310;2023-05-07T07:27:08;22.60;99.90
41722;DHT22;27407;24.142;-110.310;2023-05-07T07:29:35;22.60;99.90
41722;DHT22;27407;24.142;-110.310;2023-05-07T07:32:02;22.70;99.90
41722;DHT22;27407;24.142;-110.310;2023-05-07T07:34:28;22.70;99.90
41722;DHT22;27407;24.142;-110.310;2023-05-07T07:36:56;22.70;99.90
41722;DHT22;27407;24.142;-110.310;2023-05-07T07:39:25;22.60;99.90
41722;DHT22;27407;24.142;-110.310;2023-05-07T07:41:51;22.70;99.90
41722;DHT22;27407;24.142;-110.310;2023-05-07T07:44:18;22.80;99.90
41722;DHT22;27407;24.142;-110.310;2023-05-07T07:46:45;22.80;99.90
41722;DHT22;27407;24.142;-110.310;2023-05-07T07:49:11;22.80;99.90
41722;DHT22;27407;24.142;-110.310;2023-05-07T07:51:38;22.80;99.90
41722;DHT22;27407;24.142;-110.310;2023-05-07T07:54:05;22.90;99.90
41722;DHT22;27407;24.142;-110.310;2023-05-07T07:56:32;22.80;99.90
41722;DHT22;27407;24.142;-110.310;2023-05-07T07:59:00;22.90;99.90
41722;DHT22;27407;24.142;-110.310;2023-05-07T08:01:29;22.90;99.90
41722;DHT22;27407;24.142;-110.310;2023-05-07T08:03:58;22.90;99.90
41722;DHT22;27407;24.142;-110.310;2023-05-07T08:06:25;23.00;99.90
41722;DHT22;27407;24.142;-110.310;2023-05-07T08:08:52;22.90;99.90
41722;DHT22;27407;24.142;-110.310;2023-05-07T08:11:20;23.00;99.90
41722;DHT22;27407;24.142;-110.310;2023-05-07T08:13:47;23.10;99.90
41722;DHT22;27407;24.142;-110.310;2023-05-07T08:16:17;23.10;99.90
41722;DHT22;27407;24.142;-110.310;2023-05-07T08:18:43;23.00;99.90
41722;DHT22;27407;24.142;-110.310;2023-05-07T08:21:10;23.00;99.90
41722;DHT22;27407;24.142;-110.310;2023-05-07T08:23:37;23.10;99.90
41722;DHT22;27407;24.142;-110.310;2023-05-07T08:26:10;23.10;99.90
41722;DHT22;27407;24.142;-110.310;2023-05-07T08:28:37;23.00;99.90
41722;DHT22;27407;24.142;-110.310;2023-05-07T08:31:04;23.00;99.90
41722;DHT22;27407;24.142;-110.310;2023-05-07T08:33:30;23.10;99.90
41722;DHT22;27407;24.142;-110.310;2023-05-07T08:35:57;23.20;99.90
41722;DHT22;27407;24.142;-110.310;2023-05-07T08:38:24;23.10;99.90
41722;DHT22;27407;24.142;-110.310;2023-05-07T08:40:51;23.10;99.90
41722;DHT22;27407;24.142;-110.310;2023-05-07T08:43:20;23.10;99.90
41722;DHT22;27407;24.142;-110.310;2023-05-07T08:45:49;23.10;99.90
41722;DHT22;27407;24.142;-110.310;2023-05-07T08:48:21;23.10;99.90
41722;DHT22;27407;24.142;-110.310;2023-05-07T08:50:50;23.10;99.90
41722;DHT22;27407;24.142;-110.310;2023-05-07T08:53:18;23.10;99.90
41722;DHT22;27407;24.142;-110.310;2023-05-07T08:55:46;23.00;99.90
41722;DHT22;27407;24.142;-110.310;2023-05-07T08:58:13;23.00;99.90
41722;DHT22;27407;24.142;-110.310;2023-05-07T09:00:41;23.00;99.90
41722;DHT22;27407;24.142;-110.310;2023-05-07T09:03:08;22.90;99.90
41722;DHT22;27407;24.142;-110.310;2023-05-07T09:05:38;22.60;99.90
41722;DHT22;27407;24.142;-110.310;2023-05-07T09:08:07;22.60;99.90
41722;DHT22;27407;24.142;-110.310;2023-05-07T09:10:34;22.60;99.90
41722;DHT22;27407;24.142;-110.310;2023-05-07T09:13:01;22.50;99.90
41722;DHT22;27407;24.142;-110.310;2023-05-07T09:15:28;22.40;99.90
41722;DHT22;27407;24.142;-110.310;2023-05-07T09:17:59;22.50;99.90
41722;DHT22;27407;24.142;-110.310;2023-05-07T09:20:29;22.50;99.90
41722;DHT22;27407;24.142;-110.310;2023-05-07T09:22:56;22.50;99.90
41722;DHT22;27407;24.142;-110.310;2023-05-07T09:25:33;22.40;99.90
41722;DHT22;27407;24.142;-110.310;2023-05-07T09:28:01;22.30;99.90
41722;DHT22;27407;24.142;-110.310;2023-05-07T09:30:32;22.10;99.90
41722;DHT22;27407;24.142;-110.310;2023-05-07T09:33:00;22.10;99.90
41722;DHT22;27407;24.142;-110.310;2023-05-07T09:35:28;22.10;99.90
41722;DHT22;27407;24.142;-110.310;2023-05-07T09:37:59;22.20;99.90
41722;DHT22;27407;24.142;-110.310;2023-05-07T09:40:30;22.30;99.90
41722;DHT22;27407;24.142;-110.310;2023-05-07T09:43:12;22.50;99.90
41722;DHT22;27407;24.142;-110.310;2023-05-07T09:45:39;22.70;99.90
41722;DHT22;27407;24.142;-110.310;2023-05-07T09:48:08;22.70;99.90
41722;DHT22;27407;24.142;-110.310;2023-05-07T09:50:44;22.70;99.90
41722;DHT22;27407;24.142;-110.310;2023-05-07T09:53:14;22.70;99.90
41722;DHT22;27407;24.142;-110.310;2023-05-07T09:55:43;22.80;99.90
41722;DHT22;27407;24.142;-110.310;2023-05-07T09:58:09;22.80;99.90
41722;DHT22;27407;24.142;-110.310;2023-05-07T10:00:40;22.90;99.90
41722;DHT22;27407;24.142;-110.310;2023-05-07T10:03:09;22.90;99.90
41722;DHT22;27407;24.142;-110.310;2023-05-07T10:05:37;22.70;99.90
41722;DHT22;27407;24.142;-110.310;2023-05-07T10:08:04;22.40;99.90
41722;DHT22;27407;24.142;-110.310;2023-05-07T10:10:33;22.20;99.90
41722;DHT22;27407;24.142;-110.310;2023-05-07T10:13:01;21.80;99.90
41722;DHT22;27407;24.142;-110.310;2023-05-07T10:15:31;21.50;99.90
41722;DHT22;27407;24.142;-110.310;2023-05-07T10:17:59;21.30;99.90
41722;DHT22;27407;24.142;-110.310;2023-05-07T10:20:26;21.20;99.90
41722;DHT22;27407;24.142;-110.310;2023-05-07T10:22:55;21.10;99.90
41722;DHT22;27407;24.142;-110.310;2023-05-07T10:25:28;21.00;99.90
41722;DHT22;27407;24.142;-110.310;2023-05-07T10:27:57;21.10;99.90
41722;DHT22;27407;24.142;-110.310;2023-05-07T10:33:21;21.10;99.90
41722;DHT22;27407;24.142;-110.310;2023-05-07T10:35:49;21.00;99.90
41722;DHT22;27407;24.142;-110.310;2023-05-07T10:38:16;21.00;99.90
41722;DHT22;27407;24.142;-110.310;2023-05-07T10:40:44;21.00;99.90
41722;DHT22;27407;24.142;-110.310;2023-05-07T10:43:11;20.90;99.90
41722;DHT22;27407;24.142;-110.310;2023-05-07T10:45:37;20.80;99.90
41722;DHT22;27407;24.142;-110.310;2023-05-07T10:48:14;20.70;99.90
41722;DHT22;27407;24.142;-110.310;2023-05-07T10:50:45;20.50;99.90
41722;DHT22;27407;24.142;-110.310;2023-05-07T10:55:51;20.40;99.90
41722;DHT22;27407;24.142;-110.310;2023-05-07T11:00:48;20.40;99.90
41722;DHT22;27407;24.142;-110.310;2023-05-07T11:03:15;20.40;99.90
41722;DHT22;27407;24.142;-110.310;2023-05-07T11:05:42;20.40;99.90
41722;DHT22;27407;24.142;-110.310;2023-05-07T11:08:09;20.40;99.90
41722;DHT22;27407;24.142;-110.310;2023-05-07T11:10:55;20.50;99.90
41722;DHT22;27407;24.142;-110.310;2023-05-07T11:13:41;20.50;99.90
41722;DHT22;27407;24.142;-110.310;2023-05-07T11:16:21;20.50;99.90
41722;DHT22;27407;24.142;-110.310;2023-05-07T11:18:54;20.50;99.90
41722;DHT22;27407;24.142;-110.310;2023-05-07T11:21:42;20.40;99.90
41722;DHT22;27407;24.142;-110.310;2023-05-07T11:24:09;20.30;99.90
41722;DHT22;27407;24.142;-110.310;2023-05-07T11:29:13;20.20;99.90
41722;DHT22;27407;24.142;-110.310;2023-05-07T11:31:41;20.10;99.90
41722;DHT22;27407;24.142;-110.310;2023-05-07T11:34:08;20.00;99.90
41722;DHT22;27407;24.142;-110.310;2023-05-07T11:36:37;19.90;99.90
41722;DHT22;27407;24.142;-110.310;2023-05-07T11:39:32;19.90;99.90
41722;DHT22;27407;24.142;-110.310;2023-05-07T11:42:00;19.90;99.90
41722;DHT22;27407;24.142;-110.310;2023-05-07T11:44:44;19.80;99.90
41722;DHT22;27407;24.142;-110.310;2023-05-07T11:47:16;19.70;99.90
41722;DHT22;27407;24.142;-110.310;2023-05-07T11:49:45;19.60;99.90
41722;DHT22;27407;24.142;-110.310;2023-05-07T11:52:13;19.40;99.90
41722;DHT22;27407;24.142;-110.310;2023-05-07T11:54:40;19.40;99.90
41722;DHT22;27407;24.142;-110.310;2023-05-07T11:57:06;19.40;99.90
41722;DHT22;27407;24.142;-110.310;2023-05-07T11:59:40;19.40;99.90
41722;DHT22;27407;24.142;-110.310;2023-05-07T12:02:08;19.50;99.90
41722;DHT22;27407;24.142;-110.310;2023-05-07T12:04:35;19.60;99.90
41722;DHT22;27407;24.142;-110.310;2023-05-07T12:07:01;19.60;99.90
41722;DHT22;27407;24.142;-110.310;2023-05-07T12:09:28;19.50;99.90
41722;DHT22;27407;24.142;-110.310;2023-05-07T12:11:55;19.50;99.90
41722;DHT22;27407;24.142;-110.310;2023-05-07T12:14:26;19.50;99.90
41722;DHT22;27407;24.142;-110.310;2023-05-07T12:16:53;19.50;99.90
41722;DHT22;27407;24.142;-110.310;2023-05-07T12:19:20;19.40;99.90
41722;DHT22;27407;24.142;-110.310;2023-05-07T12:21:47;19.30;99.90
41722;DHT22;27407;24.142;-110.310;2023-05-07T12:24:14;19.30;99.90
41722;DHT22;27407;24.142;-110.310;2023-05-07T12:26:41;19.20;99.90
41722;DHT22;27407;24.142;-110.310;2023-05-07T12:29:08;19.10;99.90
41722;DHT22;27407;24.142;-110.310;2023-05-07T12:31:34;19.00;99.90
41722;DHT22;27407;24.142;-110.310;2023-05-07T12:34:02;18.90;99.90
41722;DHT22;27407;24.142;-110.310;2023-05-07T12:36:37;18.80;99.90
41722;DHT22;27407;24.142;-110.310;2023-05-07T12:39:08;18.70;99.90
41722;DHT22;27407;24.142;-110.310;2023-05-07T12:41:54;18.60;99.90
41722;DHT22;27407;24.142;-110.310;2023-05-07T12:44:26;18.60;99.90
41722;DHT22;27407;24.142;-110.310;2023-05-07T12:46:55;18.60;99.90
41722;DHT22;27407;24.142;-110.310;2023-05-07T12:49:22;18.70;99.90
41722;DHT22;27407;24.142;-110.310;2023-05-07T12:51:49;18.70;99.90
41722;DHT22;27407;24.142;-110.310;2023-05-07T12:54:37;18.60;99.90
41722;DHT22;27407;24.142;-110.310;2023-05-07T12:57:06;18.60;99.90
41722;DHT22;27407;24.142;-110.310;2023-05-07T13:01:59;18.70;99.90
41722;DHT22;27407;24.142;-110.310;2023-05-07T13:04:26;18.80;99.90
41722;DHT22;27407;24.142;-110.310;2023-05-07T13:06:53;18.90;99.90
41722;DHT22;27407;24.142;-110.310;2023-05-07T13:09:19;18.90;99.90
41722;DHT22;27407;24.142;-110.310;2023-05-07T13:11:46;18.80;99.90
41722;DHT22;27407;24.142;-110.310;2023-05-07T13:14:15;18.80;99.90
41722;DHT22;27407;24.142;-110.310;2023-05-07T13:16:42;18.80;99.90
41722;DHT22;27407;24.142;-110.310;2023-05-07T13:19:12;18.80;99.90
41722;DHT22;27407;24.142;-110.310;2023-05-07T13:21:38;18.80;99.90
41722;DHT22;27407;24.142;-110.310;2023-05-07T13:24:05;18.90;99.90
41722;DHT22;27407;24.142;-110.310;2023-05-07T13:26:32;19.00;99.90
41722;DHT22;27407;24.142;-110.310;2023-05-07T13:28:59;19.20;99.90
41722;DHT22;27407;24.142;-110.310;2023-05-07T13:31:25;19.30;99.90
41722;DHT22;27407;24.142;-110.310;2023-05-07T13:33:52;19.40;99.90
41722;DHT22;27407;24.142;-110.310;2023-05-07T13:36:19;19.60;99.90
41722;DHT22;27407;24.142;-110.310;2023-05-07T13:38:48;19.70;99.90
41722;DHT22;27407;24.142;-110.310;2023-05-07T13:41:15;20.00;99.90
41722;DHT22;27407;24.142;-110.310;2023-05-07T13:43:42;20.10;99.90
41722;DHT22;27407;24.142;-110.310;2023-05-07T13:46:08;20.20;99.90
41722;DHT22;27407;24.142;-110.310;2023-05-07T13:48:38;20.20;99.90
41722;DHT22;27407;24.142;-110.310;2023-05-07T13:51:05;20.20;99.90
41722;DHT22;27407;24.142;-110.310;2023-05-07T13:53:31;20.30;99.90
41722;DHT22;27407;24.142;-110.310;2023-05-07T13:55:58;20.40;99.90
41722;DHT22;27407;24.142;-110.310;2023-05-07T13:58:24;20.50;99.90
41722;DHT22;27407;24.142;-110.310;2023-05-07T14:00:51;20.60;99.90
41722;DHT22;27407;24.142;-110.310;2023-05-07T14:03:18;20.80;99.90
41722;DHT22;27407;24.142;-110.310;2023-05-07T14:05:45;20.90;99.90
41722;DHT22;27407;24.142;-110.310;2023-05-07T14:08:12;21.00;99.90
41722;DHT22;27407;24.142;-110.310;2023-05-07T14:10:40;21.20;99.90
41722;DHT22;27407;24.142;-110.310;2023-05-07T14:13:06;21.30;99.90
41722;DHT22;27407;24.142;-110.310;2023-05-07T14:15:33;21.40;99.90
41722;DHT22;27407;24.142;-110.310;2023-05-07T14:18:00;21.60;99.90
41722;DHT22;27407;24.142;-110.310;2023-05-07T14:20:27;21.80;99.90
41722;DHT22;27407;24.142;-110.310;2023-05-07T14:22:53;21.90;99.90
41722;DHT22;27407;24.142;-110.310;2023-05-07T14:25:20;22.10;99.90
41722;DHT22;27407;24.142;-110.310;2023-05-07T14:27:47;22.30;99.90
41722;DHT22;27407;24.142;-110.310;2023-05-07T14:30:14;22.50;99.90
41722;DHT22;27407;24.142;-110.310;2023-05-07T14:32:40;22.60;99.90
41722;DHT22;27407;24.142;-110.310;2023-05-07T14:35:07;22.60;99.90
41722;DHT22;27407;24.142;-110.310;2023-05-07T14:37:34;22.70;99.90
41722;DHT22;27407;24.142;-110.310;2023-05-07T14:40:01;22.60;99.90
41722;DHT22;27407;24.142;-110.310;2023-05-07T14:42:28;22.60;99.90
41722;DHT22;27407;24.142;-110.310;2023-05-07T14:44:55;22.50;99.90
41722;DHT22;27407;24.142;-110.310;2023-05-07T14:47:21;22.60;99.90
41722;DHT22;27407;24.142;-110.310;2023-05-07T14:49:48;22.80;99.90
41722;DHT22;27407;24.142;-110.310;2023-05-07T14:52:14;23.00;99.90
41722;DHT22;27407;24.142;-110.310;2023-05-07T14:54:41;23.00;99.90
41722;DHT22;27407;24.142;-110.310;2023-05-07T14:57:09;23.00;99.90
41722;DHT22;27407;24.142;-110.310;2023-05-07T14:59:37;23.20;99.90
41722;DHT22;27407;24.142;-110.310;2023-05-07T15:02:04;23.50;99.90
41722;DHT22;27407;24.142;-110.310;2023-05-07T15:04:33;23.40;99.90